Time;durP1;ratioP1;P1;durP2;ratioP2;P2;SDS_P1;SDS_P2;PMS_P1;PMS_P2;Temp;Humidity;BMP_temperature;BMP_pressure;BME280_temperature;BME280_humidity;BME280_pressure;Samples;Min_cycle;Max_cycle;Signal;HPM_P1;HPM_P2
2024/02/24 00:01:42;;;;;;;0.30;0.20;;;14.60;99.90;;;;;;5106695;28;20203;-73
2024/02/24 00:04:07;;;;;;;0.30;0.20;;;14.60;99.90;;;;;;5107272;28;20786;-73
2024/02/24 00:06:33;;;;;;;0.40;0.40;;;14.60;99.90;;;;;;5107446;28;20163;-73
2024/02/24 00:08:58;;;;;;;0.30;0.20;;;14.50;99.90;;;;;;5106814;28;20208;-73
2024/02/24 00:11:24;;;;;;;0.30;0.20;;;14.50;99.90;;;;;;5106046;28;20199;-73
2024/02/24 00:13:49;;;;;;;0.30;0.20;;;14.40;99.90;;;;;;5107781;28;20195;-73
2024/02/24 00:16:15;;;;;;;0.30;0.20;;;14.40;99.90;;;;;;5107091;28;20516;-73
2024/02/24 00:18:41;;;;;;;0.30;0.20;;;14.40;99.90;;;;;;5106357;28;20235;-73
2024/02/24 00:21:06;;;;;;;0.30;0.20;;;14.30;99.90;;;;;;5107434;28;20250;-73
2024/02/24 00:23:32;;;;;;;0.30;0.20;;;14.30;99.90;;;;;;5107764;28;20757;-74
2024/02/24 00:25:58;;;;;;;0.30;0.20;;;14.20;99.90;;;;;;5106881;28;20180;-73
2024/02/24 00:28:23;;;;;;;0.30;0.20;;;14.20;99.90;;;;;;5107110;28;20195;-74
2024/02/24 00:30:49;;;;;;;0.30;0.20;;;14.10;99.90;;;;;;5107203;28;20219;-74
2024/02/24 00:33:15;;;;;;;7.20;4.30;;;14.10;99.90;;;;;;5106155;28;20199;-73
2024/02/24 00:35:40;;;;;;;0.30;0.30;;;14.10;99.90;;;;;;5107143;28;20175;-73
2024/02/24 00:38:06;;;;;;;3.30;1.17;;;14.00;99.90;;;;;;5107077;28;20239;-73
2024/02/24 00:40:31;;;;;;;0.30;0.30;;;14.00;99.90;;;;;;5107331;28;20192;-74
2024/02/24 00:42:57;;;;;;;0.30;0.30;;;14.00;99.90;;;;;;5105509;28;20235;-73
2024/02/24 00:45:23;;;;;;;0.30;0.20;;;14.00;99.90;;;;;;5107265;28;20224;-74
2024/02/24 00:47:48;;;;;;;0.30;0.30;;;14.00;99.90;;;;;;5106832;28;20195;-73
2024/02/24 00:50:14;;;;;;;0.30;0.20;;;14.00;99.90;;;;;;5105791;28;20325;-73
2024/02/24 00:52:40;;;;;;;0.30;0.20;;;14.00;99.90;;;;;;5106891;28;20266;-73
2024/02/24 00:55:06;;;;;;;0.30;0.20;;;14.10;99.90;;;;;;5105584;28;20980;-72
2024/02/24 00:57:32;;;;;;;0.30;0.20;;;14.10;99.90;;;;;;5106477;28;20196;-73
2024/02/24 00:59:57;;;;;;;0.30;0.20;;;14.00;99.90;;;;;;5105836;28;20176;-76
2024/02/24 01:02:23;;;;;;;0.30;0.20;;;14.00;99.90;;;;;;5106502;28;20787;-73
2024/02/24 01:04:52;;;;;;;1.17;1.13;;;14.10;99.90;;;;;;5105578;28;20188;-73
2024/02/24 01:07:18;;;;;;;0.30;0.20;;;14.00;99.90;;;;;;5104289;28;20179;-73
2024/02/24 01:09:43;;;;;;;0.30;0.20;;;14.10;99.90;;;;;;5105627;28;20434;-73
2024/02/24 01:12:10;;;;;;;0.30;0.20;;;14.00;99.90;;;;;;5106320;28;20444;-73
2024/02/24 01:14:36;;;;;;;0.30;0.20;;;14.00;99.90;;;;;;5106711;28;20466;-74
2024/02/24 01:17:01;;;;;;;0.30;0.20;;;14.00;99.90;;;;;;5105766;28;20416;-73
2024/02/24 01:19:27;;;;;;;0.30;0.20;;;14.00;99.90;;;;;;5106482;28;20608;-73
2024/02/24 01:21:53;;;;;;;0.60;0.60;;;14.00;99.90;;;;;;5106295;28;20251;-73
2024/02/24 01:24:18;;;;;;;0.30;0.20;;;14.00;99.90;;;;;;5106558;28;20234;-73
2024/02/24 01:26:44;;;;;;;0.30;0.20;;;14.00;99.90;;;;;;5106128;28;20211;-73
2024/02/24 01:29:10;;;;;;;0.50;0.50;;;14.00;99.90;;;;;;5106273;28;20665;-73
2024/02/24 01:31:36;;;;;;;0.30;0.20;;;14.00;99.90;;;;;;5105979;28;20182;-73
2024/02/24 01:34:01;;;;;;;0.50;0.50;;;14.00;99.90;;;;;;5106662;28;20227;-73
2024/02/24 01:36:27;;;;;;;0.30;0.20;;;14.00;99.90;;;;;;5104659;28;20180;-73
2024/02/24 01:38:54;;;;;;;0.30;0.20;;;14.00;99.90;;;;;;5104368;28;20691;-73
2024/02/24 01:41:20;;;;;;;0.30;0.20;;;14.00;99.90;;;;;;5105794;28;20174;-73
2024/02/24 01:43:45;;;;;;;0.30;0.20;;;14.00;99.90;;;;;;5105974;28;20964;-73
2024/02/24 01:46:15;;;;;;;0.30;0.20;;;14.00;99.90;;;;;;5104704;28;20511;-73
2024/02/24 01:48:40;;;;;;;0.30;0.20;;;14.10;99.90;;;;;;5106153;28;20283;-73
2024/02/24 01:51:08;;;;;;;0.30;0.20;;;14.00;99.90;;;;;;5104246;28;20423;-73
2024/02/24 01:53:36;;;;;;;0.30;0.20;;;14.10;99.90;;;;;;5106177;28;20595;-73
2024/02/24 01:56:06;;;;;;;1.20;1.20;;;14.10;99.90;;;;;;5104286;28;20480;-73
2024/02/24 01:58:34;;;;;;;0.53;0.50;;;14.10;99.90;;;;;;5104298;28;20612;-73
2024/02/24 02:01:01;;;;;;;0.30;0.30;;;14.20;99.90;;;;;;5105436;28;20491;-73
2024/02/24 02:03:27;;;;;;;0.30;0.20;;;14.20;99.90;;;;;;5104565;28;20528;-73
2024/02/24 02:05:53;;;;;;;0.30;0.20;;;14.10;99.90;;;;;;5105058;28;20805;-74
2024/02/24 02:08:19;;;;;;;0.30;0.20;;;14.10;99.90;;;;;;5105841;28;20459;-73
2024/02/24 02:10:46;;;;;;;0.30;0.20;;;14.10;99.90;;;;;;5104085;28;21201;-74
2024/02/24 02:13:11;;;;;;;0.30;0.20;;;14.10;99.90;;;;;;5106013;28;20699;-73
2024/02/24 02:15:37;;;;;;;0.30;0.20;;;14.10;99.90;;;;;;5104324;28;20412;-73
2024/02/24 02:18:05;;;;;;;0.30;0.20;;;14.10;99.90;;;;;;5103788;28;20456;-73
2024/02/24 02:20:30;;;;;;;0.30;0.20;;;14.10;99.90;;;;;;5104488;28;20420;-73
2024/02/24 02:22:56;;;;;;;0.30;0.20;;;14.10;99.90;;;;;;5105472;28;20676;-72
2024/02/24 02:25:21;;;;;;;0.30;0.20;;;14.10;99.90;;;;;;5104738;28;20221;-73
2024/02/24 02:27:47;;;;;;;0.50;0.50;;;14.10;99.90;;;;;;5105439;28;20215;-73
2024/02/24 02:30:13;;;;;;;0.30;0.20;;;14.10;99.90;;;;;;5104423;28;20179;-73
2024/02/24 02:32:38;;;;;;;2.93;2.63;;;14.10;99.90;;;;;;5104032;28;20682;-73
2024/02/24 02:35:06;;;;;;;0.30;0.20;;;14.10;99.90;;;;;;5105481;28;20172;-73
2024/02/24 02:37:32;;;;;;;0.30;0.20;;;14.10;99.90;;;;;;5104904;28;20196;-73
2024/02/24 02:39:59;;;;;;;0.30;0.20;;;14.20;99.90;;;;;;5104304;28;20412;-74
2024/02/24 02:42:25;;;;;;;0.30;0.20;;;14.20;99.90;;;;;;5105493;28;20564;-73
2024/02/24 02:44:50;;;;;;;0.30;0.20;;;14.20;99.90;;;;;;5105842;28;20416;-72
2024/02/24 02:47:16;;;;;;;0.30;0.20;;;14.20;99.90;;;;;;5105390;28;20587;-75
2024/02/24 02:49:42;;;;;;;0.30;0.30;;;14.30;99.90;;;;;;5106285;28;20186;-73
2024/02/24 02:52:07;;;;;;;0.30;0.20;;;14.30;99.90;;;;;;5107766;28;20176;-73
2024/02/24 02:54:33;;;;;;;0.30;0.20;;;14.30;99.90;;;;;;5109615;28;20423;-73
2024/02/24 02:56:59;;;;;;;0.30;0.20;;;14.30;99.90;;;;;;5108694;28;20175;-74
2024/02/24 02:59:25;;;;;;;0.30;0.20;;;14.30;99.90;;;;;;5109788;28;20649;-73
2024/02/24 03:01:55;;;;;;;0.30;0.30;;;14.30;99.90;;;;;;5108729;28;20656;-75
2024/02/24 03:04:21;;;;;;;0.30;0.20;;;14.30;99.90;;;;;;5108718;28;20644;-73
2024/02/24 03:06:47;;;;;;;0.30;0.20;;;14.30;99.90;;;;;;5108557;28;20411;-73
2024/02/24 03:09:12;;;;;;;0.30;0.20;;;14.40;99.90;;;;;;5109296;28;21027;-73
2024/02/24 03:11:38;;;;;;;3.50;3.40;;;14.40;99.90;;;;;;5106957;28;20836;-73
2024/02/24 03:14:04;;;;;;;0.30;0.23;;;14.40;99.90;;;;;;5107628;28;20697;-73
2024/02/24 03:16:30;;;;;;;0.30;0.20;;;14.40;99.90;;;;;;5107136;28;20179;-72
2024/02/24 03:18:55;;;;;;;0.70;0.70;;;14.40;99.90;;;;;;5108796;28;20436;-73
2024/02/24 03:21:29;;;;;;;0.30;0.20;;;14.40;99.90;;;;;;5108637;28;20171;-73
2024/02/24 03:23:55;;;;;;;2.53;2.43;;;14.50;99.90;;;;;;5108700;28;20230;-73
2024/02/24 03:26:21;;;;;;;0.33;0.30;;;14.50;99.90;;;;;;5108502;27;20408;-73
2024/02/24 03:28:47;;;;;;;2.57;2.37;;;14.50;99.90;;;;;;5107419;28;20814;-74
2024/02/24 03:31:12;;;;;;;0.30;0.20;;;14.40;99.90;;;;;;5106889;28;20231;-72
2024/02/24 03:33:38;;;;;;;0.30;0.30;;;14.40;99.90;;;;;;5107335;28;20248;-72
2024/02/24 03:36:04;;;;;;;0.30;0.20;;;14.40;99.90;;;;;;5108293;28;20661;-73
2024/02/24 03:38:30;;;;;;;0.30;0.20;;;14.40;99.90;;;;;;5108118;28;20279;-73
2024/02/24 03:40:55;;;;;;;0.30;0.20;;;14.40;99.90;;;;;;5106888;27;20416;-74
2024/02/24 03:43:21;;;;;;;0.30;0.20;;;14.40;99.90;;;;;;5107156;28;20760;-73
2024/02/24 03:45:47;;;;;;;0.30;0.20;;;14.40;99.90;;;;;;5108271;27;20168;-73
2024/02/24 03:48:12;;;;;;;0.30;0.20;;;14.40;99.90;;;;;;5108420;28;20260;-73
2024/02/24 03:50:38;;;;;;;0.30;0.20;;;14.40;99.90;;;;;;5108436;27;20213;-73
2024/02/24 03:53:04;;;;;;;0.30;0.20;;;14.40;99.90;;;;;;5107827;28;20253;-73
2024/02/24 03:55:29;;;;;;;0.30;0.20;;;14.40;99.90;;;;;;5106842;28;20537;-73
2024/02/24 03:57:55;;;;;;;0.30;0.20;;;14.40;99.90;;;;;;5107580;28;20504;-73
2024/02/24 04:00:21;;;;;;;0.30;0.20;;;14.50;99.90;;;;;;5107761;28;20164;-74
2024/02/24 04:02:46;;;;;;;7.50;3.20;;;14.40;99.90;;;;;;5106298;28;20256;-72
2024/02/24 04:05:12;;;;;;;0.57;0.57;;;14.40;99.90;;;;;;5107873;28;20164;-73
2024/02/24 04:07:38;;;;;;;0.30;0.20;;;14.40;99.90;;;;;;5106647;28;20263;-73
2024/02/24 04:10:04;;;;;;;0.30;0.30;;;14.50;99.90;;;;;;5106585;28;20176;-73
2024/02/24 04:12:30;;;;;;;0.30;0.20;;;14.50;99.90;;;;;;5105824;28;20720;-74
2024/02/24 04:14:56;;;;;;;0.30;0.30;;;14.50;99.90;;;;;;5106237;28;20523;-73
2024/02/24 04:17:21;;;;;;;0.30;0.20;;;14.50;99.90;;;;;;5107399;28;20210;-74
2024/02/24 04:19:47;;;;;;;0.30;0.30;;;14.40;99.90;;;;;;5107486;28;20645;-74
2024/02/24 04:22:12;;;;;;;0.30;0.20;;;14.50;99.90;;;;;;5107951;28;20202;-73
2024/02/24 04:24:39;;;;;;;0.30;0.20;;;14.50;99.90;;;;;;5106396;28;20222;-73
2024/02/24 04:27:05;;;;;;;0.30;0.20;;;14.50;99.90;;;;;;5107353;28;20313;-73
2024/02/24 04:29:30;;;;;;;3.43;2.60;;;14.50;99.90;;;;;;5107845;28;20901;-73
2024/02/24 04:31:56;;;;;;;0.30;0.20;;;14.50;99.90;;;;;;5105712;28;20813;-74
2024/02/24 04:34:22;;;;;;;0.30;0.20;;;14.40;99.90;;;;;;5106311;28;20197;-72
2024/02/24 04:36:47;;;;;;;0.30;0.20;;;14.40;99.90;;;;;;5107363;28;20180;-73
2024/02/24 04:39:14;;;;;;;0.30;0.20;;;14.40;99.90;;;;;;5107393;28;20200;-73
2024/02/24 04:41:40;;;;;;;0.77;0.77;;;14.40;99.90;;;;;;5107364;28;20247;-73
2024/02/24 04:44:06;;;;;;;0.60;0.57;;;14.40;99.90;;;;;;5107446;28;20551;-73
2024/02/24 04:46:33;;;;;;;0.30;0.20;;;14.40;99.90;;;;;;5106969;28;20183;-73
2024/02/24 04:48:58;;;;;;;0.30;0.30;;;14.40;99.90;;;;;;5105945;28;20443;-73
2024/02/24 04:51:24;;;;;;;0.40;0.40;;;14.40;99.90;;;;;;5105828;28;20422;-74
2024/02/24 04:53:50;;;;;;;0.87;0.60;;;14.40;99.90;;;;;;5106971;28;20207;-74
2024/02/24 04:56:17;;;;;;;0.30;0.20;;;14.40;99.90;;;;;;5106716;28;20207;-73
2024/02/24 04:58:44;;;;;;;0.30;0.20;;;14.40;99.90;;;;;;5106835;28;20275;-73
2024/02/24 05:01:10;;;;;;;0.30;0.20;;;14.40;99.90;;;;;;5106874;27;20499;-73
2024/02/24 05:03:36;;;;;;;0.30;0.20;;;14.40;99.90;;;;;;5106783;28;20945;-73
2024/02/24 05:06:03;;;;;;;0.30;0.20;;;14.30;99.90;;;;;;5104966;28;20400;-76
2024/02/24 05:08:29;;;;;;;0.30;0.20;;;14.40;99.90;;;;;;5104618;28;20492;-73
2024/02/24 05:10:55;;;;;;;0.30;0.20;;;14.30;99.90;;;;;;5105267;28;20420;-73
2024/02/24 05:13:20;;;;;;;0.30;0.20;;;14.40;99.90;;;;;;5105846;28;20721;-73
2024/02/24 05:15:46;;;;;;;0.30;0.20;;;14.40;99.90;;;;;;5105047;28;20408;-74
2024/02/24 05:18:12;;;;;;;0.30;0.20;;;14.40;99.90;;;;;;5106631;28;20661;-73
2024/02/24 05:20:38;;;;;;;0.30;0.30;;;14.40;99.90;;;;;;5104952;28;20171;-73
2024/02/24 05:23:03;;;;;;;0.30;0.20;;;14.40;99.90;;;;;;5106015;28;20231;-73
2024/02/24 05:25:30;;;;;;;0.40;0.40;;;14.40;99.90;;;;;;5106520;28;20411;-73
2024/02/24 05:27:56;;;;;;;0.30;0.20;;;14.40;99.90;;;;;;5105981;28;20200;-74
2024/02/24 05:30:21;;;;;;;0.30;0.20;;;14.40;99.90;;;;;;5106463;28;20417;-73
2024/02/24 05:32:47;;;;;;;0.30;0.20;;;14.40;99.90;;;;;;5106184;28;20191;-74
2024/02/24 05:35:12;;;;;;;0.30;0.20;;;14.40;99.90;;;;;;5105094;28;20257;-73
2024/02/24 05:37:38;;;;;;;0.30;0.20;;;14.30;99.90;;;;;;5106037;28;20204;-73
2024/02/24 05:40:04;;;;;;;0.30;0.20;;;14.30;99.90;;;;;;5104512;28;20324;-73
2024/02/24 05:42:30;;;;;;;0.30;0.20;;;14.30;99.90;;;;;;5105994;28;20654;-73
2024/02/24 05:44:55;;;;;;;0.30;0.20;;;14.30;99.90;;;;;;5106266;28;20416;-73
2024/02/24 05:47:21;;;;;;;0.30;0.20;;;14.30;99.90;;;;;;5105913;28;20678;-73
2024/02/24 05:49:47;;;;;;;2.00;1.90;;;14.30;99.90;;;;;;5106402;28;20175;-73
2024/02/24 05:52:13;;;;;;;0.30;0.20;;;14.30;99.90;;;;;;5105685;28;20174;-73
2024/02/24 05:54:41;;;;;;;0.30;0.20;;;14.30;99.90;;;;;;5106175;28;20224;-73
2024/02/24 05:57:07;;;;;;;0.30;0.20;;;14.30;99.90;;;;;;5104226;28;20393;-74
2024/02/24 05:59:36;;;;;;;0.30;0.20;;;14.30;99.90;;;;;;5104272;28;20454;-74
2024/02/24 06:02:02;;;;;;;0.30;0.20;;;14.40;99.90;;;;;;5105431;28;20457;-73
2024/02/24 06:04:27;;;;;;;0.30;0.20;;;14.40;99.90;;;;;;5106099;28;20868;-73
2024/02/24 06:06:53;;;;;;;0.30;0.20;;;14.30;99.90;;;;;;5104441;28;20396;-73
2024/02/24 06:09:19;;;;;;;0.30;0.20;;;14.30;99.90;;;;;;5105476;28;20264;-73
2024/02/24 06:11:45;;;;;;;0.30;0.20;;;14.30;99.90;;;;;;5105120;28;20215;-74
2024/02/24 06:14:10;;;;;;;0.30;0.20;;;14.30;99.90;;;;;;5105626;28;20321;-73
2024/02/24 06:16:36;;;;;;;0.30;0.20;;;14.30;99.90;;;;;;5105590;28;20918;-74
2024/02/24 06:19:02;;;;;;;0.30;0.20;;;14.40;99.90;;;;;;5105192;28;20253;-73
2024/02/24 06:21:31;;;;;;;0.30;0.20;;;14.50;99.90;;;;;;5104499;28;20188;-73
2024/02/24 06:23:57;;;;;;;3.90;3.40;;;14.50;99.90;;;;;;5104716;28;20570;-73
2024/02/24 06:26:23;;;;;;;1.53;1.50;;;14.40;99.90;;;;;;5109711;27;20633;-74
2024/02/24 06:28:48;;;;;;;2.40;2.10;;;14.40;99.90;;;;;;5108365;28;20223;-73
2024/02/24 06:31:14;;;;;;;1.37;1.27;;;14.40;99.90;;;;;;5109520;28;20726;-73
2024/02/24 06:33:40;;;;;;;12.97;11.87;;;14.50;99.90;;;;;;5108017;28;20417;-74
2024/02/24 06:36:06;;;;;;;5.50;5.23;;;14.50;99.90;;;;;;5107483;28;20640;-73
2024/02/24 06:38:32;;;;;;;6.20;5.90;;;14.60;99.90;;;;;;5109177;28;20210;-74
2024/02/24 06:40:57;;;;;;;1.40;1.23;;;14.60;99.90;;;;;;5109242;28;20888;-73
2024/02/24 06:43:23;;;;;;;0.30;0.20;;;14.60;99.90;;;;;;5108740;28;20276;-74
2024/02/24 06:45:49;;;;;;;0.30;0.20;;;14.60;99.90;;;;;;5107693;28;20554;-74
2024/02/24 06:48:15;;;;;;;0.53;0.53;;;14.60;99.90;;;;;;5109590;28;20192;-74
2024/02/24 06:50:41;;;;;;;0.30;0.20;;;14.60;99.90;;;;;;5109013;28;20167;-75
2024/02/24 06:53:07;;;;;;;0.30;0.30;;;14.60;99.90;;;;;;5107226;28;20454;-75
2024/02/24 06:55:33;;;;;;;0.30;0.20;;;14.60;99.90;;;;;;5123340;27;20465;-75
2024/02/24 06:57:58;;;;;;;0.30;0.20;;;14.70;99.90;;;;;;5107363;28;20866;-75
2024/02/24 07:00:24;;;;;;;0.30;0.30;;;14.70;99.90;;;;;;5123137;27;20386;-75
2024/02/24 07:02:51;;;;;;;0.30;0.20;;;14.80;99.90;;;;;;5122903;27;20740;-74
2024/02/24 07:05:17;;;;;;;0.30;0.20;;;14.80;99.90;;;;;;5106566;28;20208;-73
2024/02/24 07:07:43;;;;;;;0.90;0.90;;;14.80;99.90;;;;;;5108641;28;20928;-73
2024/02/24 07:10:09;;;;;;;0.30;0.20;;;14.80;99.90;;;;;;5107933;28;20693;-74
2024/02/24 07:12:35;;;;;;;0.83;0.83;;;14.90;99.90;;;;;;5119558;27;20624;-74
2024/02/24 07:15:01;;;;;;;0.30;0.20;;;14.90;99.90;;;;;;5086907;28;20425;-72
2024/02/24 07:17:27;;;;;;;2.00;1.00;;;14.90;99.90;;;;;;5088092;28;20438;-74
2024/02/24 07:19:53;;;;;;;1.57;1.47;;;14.90;99.90;;;;;;5093141;28;20482;-73
2024/02/24 07:22:19;;;;;;;3.70;1.33;;;14.90;99.90;;;;;;5124351;27;20465;-73
2024/02/24 07:24:45;;;;;;;0.30;0.20;;;14.90;99.90;;;;;;5108712;28;20479;-73
2024/02/24 07:27:10;;;;;;;1.80;1.70;;;14.90;99.90;;;;;;5124360;27;20180;-73
2024/02/24 07:29:36;;;;;;;0.40;0.40;;;14.80;99.90;;;;;;5108631;28;20218;-73
2024/02/24 07:32:01;;;;;;;0.30;0.20;;;14.90;99.90;;;;;;5107993;27;20250;-74
2024/02/24 07:34:27;;;;;;;0.30;0.20;;;14.80;99.90;;;;;;5108179;28;20231;-73
2024/02/24 07:36:53;;;;;;;0.30;0.20;;;14.90;99.90;;;;;;5107743;28;20260;-73
2024/02/24 07:39:18;;;;;;;0.30;0.20;;;14.90;99.90;;;;;;5107914;28;20725;-75
2024/02/24 07:41:45;;;;;;;0.30;0.20;;;14.90;99.90;;;;;;5108060;28;20164;-73
2024/02/24 07:44:11;;;;;;;0.40;0.30;;;14.90;99.90;;;;;;5107203;28;20211;-74
2024/02/24 07:46:37;;;;;;;0.30;0.20;;;14.80;99.90;;;;;;5106901;28;20424;-75
2024/02/24 07:49:03;;;;;;;0.30;0.20;;;14.90;99.90;;;;;;5106592;28;20443;-73
2024/02/24 07:51:29;;;;;;;0.50;0.50;;;14.90;99.90;;;;;;5107700;28;20627;-74
2024/02/24 07:53:59;;;;;;;0.30;0.20;;;14.90;99.90;;;;;;5106909;28;20630;-73
2024/02/24 07:56:25;;;;;;;0.30;0.20;;;14.90;99.90;;;;;;5107729;28;20558;-77
2024/02/24 07:58:51;;;;;;;0.30;0.20;;;14.90;99.90;;;;;;5106069;28;20448;-74
2024/02/24 08:01:17;;;;;;;0.30;0.20;;;15.00;99.90;;;;;;5123067;27;20423;-74
2024/02/24 08:03:43;;;;;;;0.30;0.20;;;15.00;99.90;;;;;;5107779;28;20460;-77
2024/02/24 08:06:09;;;;;;;0.30;0.20;;;15.00;99.90;;;;;;5123095;27;20939;-77
2024/02/24 08:08:36;;;;;;;0.30;0.20;;;15.00;99.90;;;;;;5105863;28;20824;-74
2024/02/24 08:11:05;;;;;;;0.30;0.20;;;15.00;99.90;;;;;;5104323;28;20183;-72
2024/02/24 08:13:31;;;;;;;0.30;0.20;;;15.00;99.90;;;;;;5107164;28;20798;-75
2024/02/24 08:16:03;;;;;;;0.30;0.20;;;15.00;99.90;;;;;;5107108;28;20419;-77
2024/02/24 08:18:30;;;;;;;2.00;1.90;;;15.10;99.90;;;;;;5106559;28;20443;-80
2024/02/24 08:20:57;;;;;;;0.30;0.20;;;15.10;99.90;;;;;;5106001;27;20436;-74
2024/02/24 08:23:23;;;;;;;1.03;1.03;;;15.20;99.90;;;;;;5106442;28;20544;-74
2024/02/24 08:25:48;;;;;;;0.77;0.77;;;15.20;99.90;;;;;;5104943;28;20443;-81
2024/02/24 08:28:14;;;;;;;0.30;0.20;;;15.20;99.90;;;;;;5104515;28;20534;-80
2024/02/24 08:30:41;;;;;;;0.30;0.20;;;15.20;99.90;;;;;;5102420;28;20185;-79
2024/02/24 08:33:07;;;;;;;0.30;0.20;;;15.20;99.90;;;;;;5089205;28;20521;-79
2024/02/24 08:35:32;;;;;;;0.30;0.20;;;15.30;99.90;;;;;;5102504;28;20184;-75
2024/02/24 08:37:58;;;;;;;0.30;0.20;;;15.30;99.90;;;;;;5105414;28;20538;-75
2024/02/24 08:40:24;;;;;;;0.30;0.20;;;15.30;99.90;;;;;;5095760;28;20428;-76
2024/02/24 08:42:50;;;;;;;0.30;0.30;;;15.40;99.90;;;;;;5095833;28;20206;-78
2024/02/24 08:45:16;;;;;;;0.30;0.20;;;15.40;99.90;;;;;;5095791;28;20836;-77
2024/02/24 08:47:41;;;;;;;0.30;0.20;;;15.40;99.90;;;;;;5092795;27;20456;-77
2024/02/24 08:50:07;;;;;;;0.30;0.20;;;15.40;99.90;;;;;;5092675;28;20647;-75
2024/02/24 08:52:33;;;;;;;0.30;0.20;;;15.50;99.90;;;;;;5101353;28;20208;-76
2024/02/24 08:54:59;;;;;;;0.30;0.27;;;15.50;99.90;;;;;;5102085;28;20428;-74
2024/02/24 08:57:25;;;;;;;0.30;0.20;;;15.50;99.90;;;;;;5101821;28;21126;-79
2024/02/24 08:59:51;;;;;;;0.30;0.20;;;15.60;99.90;;;;;;5099835;28;20543;-83
2024/02/24 09:02:17;;;;;;;0.30;0.20;;;15.50;99.90;;;;;;5098393;28;20190;-79
2024/02/24 09:04:43;;;;;;;0.30;0.20;;;15.60;99.90;;;;;;5093443;28;20251;-79
2024/02/24 09:07:09;;;;;;;0.30;0.20;;;15.60;99.90;;;;;;5097237;28;20845;-84
2024/02/24 09:09:42;;;;;;;0.30;0.20;;;15.60;99.90;;;;;;5143537;27;20554;-82
2024/02/24 09:12:08;;;;;;;0.30;0.20;;;15.50;99.90;;;;;;5122545;28;20407;-77
2024/02/24 09:14:34;;;;;;;0.30;0.20;;;15.50;99.90;;;;;;5100660;28;20446;-79
2024/02/24 09:16:59;;;;;;;0.30;0.20;;;15.50;99.90;;;;;;5083321;28;20422;-80
2024/02/24 09:19:26;;;;;;;0.30;0.20;;;15.60;99.90;;;;;;5080500;28;20249;-81
2024/02/24 09:21:52;;;;;;;0.30;0.20;;;15.60;99.90;;;;;;5078501;28;20230;-81
2024/02/24 09:24:17;;;;;;;0.30;0.20;;;15.60;99.90;;;;;;5080701;28;20456;-81
2024/02/24 09:26:43;;;;;;;0.83;0.83;;;15.70;99.90;;;;;;5097516;28;20447;-79
2024/02/24 09:29:09;;;;;;;2.47;1.30;;;15.80;99.90;;;;;;5099993;28;20567;-80
2024/02/24 09:31:34;;;;;;;0.30;0.20;;;15.80;99.90;;;;;;5096692;28;20180;-84
2024/02/24 09:34:00;;;;;;;0.30;0.20;;;15.80;99.90;;;;;;5098210;28;20196;-76
2024/02/24 09:36:26;;;;;;;3.50;3.40;;;15.80;99.90;;;;;;5098463;28;20176;-84
2024/02/24 09:38:51;;;;;;;2.87;2.77;;;15.80;99.90;;;;;;5099610;28;20210;-78
2024/02/24 09:41:18;;;;;;;0.30;0.27;;;15.90;99.90;;;;;;5095868;28;20204;-78
2024/02/24 09:43:44;;;;;;;0.53;0.53;;;15.90;99.90;;;;;;5096170;28;20207;-77
2024/02/24 09:46:10;;;;;;;1.10;1.10;;;15.90;99.90;;;;;;5096227;28;20805;-81
2024/02/24 09:48:38;;;;;;;0.40;0.40;;;15.90;99.90;;;;;;5096503;28;20468;-79
2024/02/24 09:51:04;;;;;;;0.30;0.20;;;15.90;99.90;;;;;;5095157;28;20419;-83
2024/02/24 09:53:30;;;;;;;0.30;0.20;;;15.90;99.90;;;;;;5088921;28;20461;-77
2024/02/24 09:55:57;;;;;;;0.30;0.20;;;15.90;99.90;;;;;;5078795;28;20387;-76
2024/02/24 09:58:23;;;;;;;0.30;0.20;;;15.90;99.90;;;;;;5079433;28;20224;-82
2024/02/24 10:00:53;;;;;;;0.30;0.20;;;15.90;99.90;;;;;;5079257;28;20425;-82
2024/02/24 10:03:21;;;;;;;3.43;3.23;;;16.00;99.90;;;;;;5081571;28;20564;-83
2024/02/24 10:05:51;;;;;;;0.30;0.20;;;16.00;99.90;;;;;;5079055;28;20788;-85
2024/02/24 10:08:17;;;;;;;0.90;0.90;;;16.00;99.90;;;;;;5077259;28;20485;-81
2024/02/24 10:10:44;;;;;;;0.30;0.20;;;16.00;99.90;;;;;;5076657;28;20416;-80
2024/02/24 10:13:10;;;;;;;0.30;0.20;;;16.00;99.90;;;;;;5112414;27;20463;-80
2024/02/24 10:15:36;;;;;;;0.40;0.33;;;16.00;99.90;;;;;;5096959;28;20781;-77
2024/02/24 10:18:03;;;;;;;0.30;0.30;;;16.00;99.90;;;;;;5097086;28;20471;-79
2024/02/24 10:20:29;;;;;;;0.30;0.30;;;16.00;99.90;;;;;;5072648;28;20418;-84
2024/02/24 10:22:56;;;;;;;0.30;0.20;;;16.00;99.90;;;;;;5063917;28;20591;-84
2024/02/24 10:25:22;;;;;;;1.03;0.93;;;15.90;99.90;;;;;;5063953;28;20950;-79
2024/02/24 10:27:48;;;;;;;0.30;0.20;;;15.90;99.90;;;;;;5070687;28;20483;-78
2024/02/24 10:30:14;;;;;;;0.30;0.20;;;15.80;99.90;;;;;;5086354;28;20535;-82
2024/02/24 10:32:41;;;;;;;0.30;0.30;;;15.70;99.90;;;;;;5084705;28;20445;-80
2024/02/24 10:35:11;;;;;;;0.60;0.60;;;15.70;99.90;;;;;;5084623;28;20908;-80
2024/02/24 10:37:37;;;;;;;10.33;2.00;;;15.60;99.90;;;;;;5082227;28;21145;-81
2024/02/24 10:40:05;;;;;;;0.30;0.20;;;15.60;99.90;;;;;;5064422;28;20418;-80
2024/02/24 10:42:31;;;;;;;0.30;0.20;;;15.60;99.90;;;;;;5066431;28;20181;-76
2024/02/24 10:44:57;;;;;;;0.90;0.50;;;15.60;99.90;;;;;;5065238;28;20421;-85
2024/02/24 10:47:24;;;;;;;0.30;0.20;;;15.60;99.90;;;;;;5077393;28;20413;-82
2024/02/24 10:49:50;;;;;;;0.30;0.20;;;15.50;99.90;;;;;;5087345;28;20397;-80
2024/02/24 10:52:18;;;;;;;0.50;0.50;;;15.60;99.90;;;;;;5086626;28;20397;-80
2024/02/24 10:54:45;;;;;;;0.30;0.20;;;15.60;99.90;;;;;;5086970;28;20248;-81
2024/02/24 10:57:13;;;;;;;1.00;0.73;;;15.60;99.90;;;;;;5075247;28;20409;-80
2024/02/24 10:59:39;;;;;;;0.30;0.30;;;15.60;99.90;;;;;;5066242;28;20489;-84
2024/02/24 11:02:11;;;;;;;0.30;0.20;;;15.60;99.90;;;;;;5065504;28;20864;-79
2024/02/24 11:04:38;;;;;;;3.13;2.30;;;15.70;99.90;;;;;;5066359;28;20173;-78
2024/02/24 11:07:15;;;;;;;0.70;0.70;;;15.70;99.90;;;;;;5084539;28;20417;-80
2024/02/24 11:09:45;;;;;;;0.40;0.30;;;15.70;99.90;;;;;;5084780;28;20545;-78
2024/02/24 11:12:12;;;;;;;0.30;0.20;;;15.60;99.90;;;;;;5084444;28;20809;-77
2024/02/24 11:14:43;;;;;;;0.73;0.73;;;15.60;99.90;;;;;;5083395;28;20445;-76
2024/02/24 11:17:33;;;;;;;0.60;0.60;;;15.60;99.90;;;;;;5064792;28;20918;-77
2024/02/24 11:19:59;;;;;;;2.00;1.90;;;15.60;99.90;;;;;;5064448;28;20422;-78
2024/02/24 11:22:27;;;;;;;2.03;1.10;;;15.50;99.90;;;;;;5063932;28;21022;-77
2024/02/24 11:25:05;;;;;;;0.37;0.30;;;15.60;99.90;;;;;;5069941;28;20288;-82
2024/02/24 11:27:36;;;;;;;0.30;0.20;;;15.60;99.90;;;;;;5084609;28;20432;-82
2024/02/24 11:30:33;;;;;;;0.30;0.20;;;15.60;99.90;;;;;;5086027;28;20393;-80
2024/02/24 11:33:23;;;;;;;0.30;0.20;;;15.60;99.90;;;;;;5066180;28;20441;-77
2024/02/24 11:35:50;;;;;;;0.30;0.20;;;15.60;99.90;;;;;;5064380;28;20418;-84
2024/02/24 11:38:18;;;;;;;0.30;0.20;;;15.60;99.90;;;;;;5064690;28;20536;-78
2024/02/24 11:40:46;;;;;;;0.30;0.20;;;15.60;99.90;;;;;;5065642;28;20813;-81
2024/02/24 11:43:13;;;;;;;0.40;0.40;;;15.60;99.90;;;;;;5065072;28;20453;-84
2024/02/24 11:45:53;;;;;;;0.30;0.20;;;15.60;99.90;;;;;;5065613;28;20410;-81
2024/02/24 11:48:20;;;;;;;0.30;0.30;;;15.60;99.90;;;;;;5065378;28;20718;-80
2024/02/24 11:50:46;;;;;;;0.30;0.20;;;15.60;99.90;;;;;;5063820;28;20424;-81
2024/02/24 11:53:14;;;;;;;0.30;0.20;;;15.70;99.90;;;;;;5075223;28;20484;-81
2024/02/24 11:55:47;;;;;;;0.30;0.20;;;15.70;99.90;;;;;;5085796;28;20556;-82
2024/02/24 11:58:17;;;;;;;0.30;0.20;;;15.60;99.90;;;;;;5083136;28;20441;-83
2024/02/24 12:00:44;;;;;;;0.30;0.20;;;15.70;99.90;;;;;;5079832;28;20405;-83
2024/02/24 12:03:11;;;;;;;0.40;0.37;;;15.70;99.90;;;;;;5072606;28;20458;-82
2024/02/24 12:05:37;;;;;;;0.30;0.20;;;15.60;99.90;;;;;;5065276;28;20402;-82
2024/02/24 12:08:05;;;;;;;0.30;0.20;;;15.60;99.90;;;;;;5063906;28;20492;-79
2024/02/24 12:10:38;;;;;;;0.30;0.20;;;15.70;99.90;;;;;;5065617;28;20399;-77
2024/02/24 12:13:10;;;;;;;0.30;0.20;;;15.70;99.90;;;;;;5084108;28;20453;-80
2024/02/24 12:15:38;;;;;;;0.53;0.53;;;15.70;99.90;;;;;;5082459;28;20417;-81
2024/02/24 12:18:04;;;;;;;0.30;0.20;;;15.70;99.90;;;;;;5083226;28;20433;-81
2024/02/24 12:20:31;;;;;;;0.30;0.20;;;15.70;99.90;;;;;;5082475;28;20905;-78
2024/02/24 12:23:07;;;;;;;0.30;0.20;;;15.70;99.90;;;;;;5078755;28;20579;-86
2024/02/24 12:25:33;;;;;;;0.30;0.20;;;15.70;99.90;;;;;;5084839;28;20463;-82
2024/02/24 12:28:03;;;;;;;0.43;0.43;;;15.70;99.90;;;;;;5082841;28;21144;-80
2024/02/24 12:30:40;;;;;;;0.30;0.20;;;15.70;99.90;;;;;;5071939;28;20419;-80
2024/02/24 12:33:10;;;;;;;0.73;0.73;;;15.70;99.90;;;;;;5083407;28;20447;-78
2024/02/24 12:35:37;;;;;;;0.30;0.20;;;15.70;99.90;;;;;;5085048;28;20933;-78
2024/02/24 12:38:04;;;;;;;0.30;0.20;;;15.70;99.90;;;;;;5083359;28;20498;-80
2024/02/24 12:40:34;;;;;;;0.30;0.20;;;15.70;99.90;;;;;;5078153;28;20930;-80
2024/02/24 12:43:02;;;;;;;0.40;0.30;;;15.70;99.90;;;;;;5062772;28;20705;-83